sensor_id;sensor_type;location;lat;lon;timestamp;temperature;humidity
8436;DHT22;4255;48.730;9.156;2023-12-20T00:01:35;7.10;99.90
8436;DHT22;4255;48.730;9.156;2023-12-20T00:04:00;7.00;99.90
8436;DHT22;4255;48.730;9.156;2023-12-20T00:06:27;7.10;99.90
8436;DHT22;4255;48.730;9.156;2023-12-20T00:08:52;7.00;99.90
8436;DHT22;4255;48.730;9.156;2023-12-20T00:11:19;7.10;99.90
8436;DHT22;4255;48.730;9.156;2023-12-20T00:13:44;7.10;99.90
8436;DHT22;4255;48.730;9.156;2023-12-20T00:16:10;7.10;99.90
8436;DHT22;4255;48.730;9.156;2023-12-20T00:18:35;7.20;99.90
8436;DHT22;4255;48.730;9.156;2023-12-20T00:21:02;7.10;99.90
8436;DHT22;4255;48.730;9.156;2023-12-20T00:23:28;7.10;99.90
8436;DHT22;4255;48.730;9.156;2023-12-20T00:25:53;7.00;99.90
8436;DHT22;4255;48.730;9.156;2023-12-20T00:28:19;7.00;99.90
8436;DHT22;4255;48.730;9.156;2023-12-20T00:30:44;7.10;99.90
8436;DHT22;4255;48.730;9.156;2023-12-20T00:33:10;7.10;99.90
8436;DHT22;4255;48.730;9.156;2023-12-20T00:35:36;7.00;99.90
8436;DHT22;4255;48.730;9.156;2023-12-20T00:38:01;7.00;99.90
8436;DHT22;4255;48.730;9.156;2023-12-20T00:40:27;7.00;99.90
8436;DHT22;4255;48.730;9.156;2023-12-20T00:42:56;7.00;99.90
8436;DHT22;4255;48.730;9.156;2023-12-20T00:45:21;7.00;99.90
8436;DHT22;4255;48.730;9.156;2023-12-20T00:47:47;7.00;99.90
8436;DHT22;4255;48.730;9.156;2023-12-20T00:50:12;6.90;99.90
8436;DHT22;4255;48.730;9.156;2023-12-20T00:52:38;7.00;99.90
8436;DHT22;4255;48.730;9.156;2023-12-20T00:55:04;6.90;99.90
8436;DHT22;4255;48.730;9.156;2023-12-20T00:57:31;7.00;99.90
8436;DHT22;4255;48.730;9.156;2023-12-20T00:59:57;6.90;99.90
8436;DHT22;4255;48.730;9.156;2023-12-20T01:02:22;6.80;99.90
8436;DHT22;4255;48.730;9.156;2023-12-20T01:04:48;6.80;99.90
8436;DHT22;4255;48.730;9.156;2023-12-20T01:07:13;6.90;99.90
8436;DHT22;4255;48.730;9.156;2023-12-20T01:09:39;6.80;99.90
8436;DHT22;4255;48.730;9.156;2023-12-20T01:12:05;6.80;99.90
8436;DHT22;4255;48.730;9.156;2023-12-20T01:14:30;6.80;99.90
8436;DHT22;4255;48.730;9.156;2023-12-20T01:16:56;6.80;99.90
8436;DHT22;4255;48.730;9.156;2023-12-20T01:19:22;6.80;99.90
8436;DHT22;4255;48.730;9.156;2023-12-20T01:21:48;6.90;99.90
8436;DHT22;4255;48.730;9.156;2023-12-20T01:24:13;6.90;99.90
8436;DHT22;4255;48.730;9.156;2023-12-20T01:26:39;6.80;99.90
8436;DHT22;4255;48.730;9.156;2023-12-20T01:29:04;6.70;99.90
8436;DHT22;4255;48.730;9.156;2023-12-20T01:31:30;6.80;99.90
8436;DHT22;4255;48.730;9.156;2023-12-20T01:33:55;6.80;99.90
8436;DHT22;4255;48.730;9.156;2023-12-20T01:36:21;6.90;99.90
8436;DHT22;4255;48.730;9.156;2023-12-20T01:38:47;6.90;99.90
8436;DHT22;4255;48.730;9.156;2023-12-20T01:41:12;6.90;99.90
8436;DHT22;4255;48.730;9.156;2023-12-20T01:43:38;6.80;99.90
8436;DHT22;4255;48.730;9.156;2023-12-20T01:46:04;6.90;99.90
8436;DHT22;4255;48.730;9.156;2023-12-20T01:48:30;6.80;99.90
8436;DHT22;4255;48.730;9.156;2023-12-20T01:50:58;7.00;99.90
8436;DHT22;4255;48.730;9.156;2023-12-20T01:53:25;7.00;99.90
8436;DHT22;4255;48.730;9.156;2023-12-20T01:55:54;7.10;99.90
8436;DHT22;4255;48.730;9.156;2023-12-20T01:58:22;7.10;99.90
8436;DHT22;4255;48.730;9.156;2023-12-20T02:00:49;7.20;99.90
8436;DHT22;4255;48.730;9.156;2023-12-20T02:03:14;7.20;99.90
8436;DHT22;4255;48.730;9.156;2023-12-20T02:05:41;7.10;99.90
8436;DHT22;4255;48.730;9.156;2023-12-20T02:08:07;7.10;99.90
8436;DHT22;4255;48.730;9.156;2023-12-20T02:10:32;7.30;99.90
8436;DHT22;4255;48.730;9.156;2023-12-20T02:12:58;7.20;99.90
8436;DHT22;4255;48.730;9.156;2023-12-20T02:15:24;7.20;99.90
8436;DHT22;4255;48.730;9.156;2023-12-20T02:17:49;7.30;99.90
8436;DHT22;4255;48.730;9.156;2023-12-20T02:20:15;7.30;99.90
8436;DHT22;4255;48.730;9.156;2023-12-20T02:22:41;7.30;99.90
8436;DHT22;4255;48.730;9.156;2023-12-20T02:25:07;7.10;99.90
8436;DHT22;4255;48.730;9.156;2023-12-20T02:27:33;7.10;99.90
8436;DHT22;4255;48.730;9.156;2023-12-20T02:30:03;7.20;99.90
8436;DHT22;4255;48.730;9.156;2023-12-20T02:32:28;7.20;99.90
8436;DHT22;4255;48.730;9.156;2023-12-20T02:34:55;7.20;99.90
8436;DHT22;4255;48.730;9.156;2023-12-20T02:37:21;7.10;99.90
8436;DHT22;4255;48.730;9.156;2023-12-20T02:39:48;7.10;99.90
8436;DHT22;4255;48.730;9.156;2023-12-20T02:42:13;7.00;99.90
8436;DHT22;4255;48.730;9.156;2023-12-20T02:44:39;6.90;99.90
8436;DHT22;4255;48.730;9.156;2023-12-20T02:47:04;6.90;99.90
8436;DHT22;4255;48.730;9.156;2023-12-20T02:49:30;6.90;99.90
8436;DHT22;4255;48.730;9.156;2023-12-20T02:51:56;6.90;99.90
8436;DHT22;4255;48.730;9.156;2023-12-20T02:54:21;7.00;99.90
8436;DHT22;4255;48.730;9.156;2023-12-20T02:56:47;6.90;99.90
8436;DHT22;4255;48.730;9.156;2023-12-20T02:59:13;7.10;99.90
8436;DHT22;4255;48.730;9.156;2023-12-20T03:01:45;7.10;99.90
8436;DHT22;4255;48.730;9.156;2023-12-20T03:04:11;7.30;99.90
8436;DHT22;4255;48.730;9.156;2023-12-20T03:06:37;7.30;99.90
8436;DHT22;4255;48.730;9.156;2023-12-20T03:09:06;7.30;99.90
8436;DHT22;4255;48.730;9.156;2023-12-20T03:11:31;7.40;99.90
8436;DHT22;4255;48.730;9.156;2023-12-20T03:13:57;7.30;99.90
8436;DHT22;4255;48.730;9.156;2023-12-20T03:16:23;7.40;99.90
8436;DHT22;4255;48.730;9.156;2023-12-20T03:18:49;7.50;99.90
8436;DHT22;4255;48.730;9.156;2023-12-20T03:21:15;7.50;99.90
8436;DHT22;4255;48.730;9.156;2023-12-20T03:23:41;7.50;99.90
8436;DHT22;4255;48.730;9.156;2023-12-20T03:26:07;7.40;99.90
8436;DHT22;4255;48.730;9.156;2023-12-20T03:28:33;7.40;99.90
8436;DHT22;4255;48.730;9.156;2023-12-20T03:30:59;7.40;99.90
8436;DHT22;4255;48.730;9.156;2023-12-20T03:33:25;7.30;99.90
8436;DHT22;4255;48.730;9.156;2023-12-20T03:35:51;7.20;99.90
8436;DHT22;4255;48.730;9.156;2023-12-20T03:38:16;7.10;99.90
8436;DHT22;4255;48.730;9.156;2023-12-20T03:40:42;7.10;99.90
8436;DHT22;4255;48.730;9.156;2023-12-20T03:43:08;7.10;99.90
8436;DHT22;4255;48.730;9.156;2023-12-20T03:45:33;7.10;99.90
8436;DHT22;4255;48.730;9.156;2023-12-20T03:47:59;6.70;99.90
8436;DHT22;4255;48.730;9.156;2023-12-20T03:50:28;6.70;99.90
8436;DHT22;4255;48.730;9.156;2023-12-20T03:52:54;6.50;99.90
8436;DHT22;4255;48.730;9.156;2023-12-20T03:55:20;6.40;99.90
8436;DHT22;4255;48.730;9.156;2023-12-20T03:57:45;6.40;99.90
8436;DHT22;4255;48.730;9.156;2023-12-20T04:00:11;6.30;99.90
8436;DHT22;4255;48.730;9.156;2023-12-20T04:02:39;6.40;99.90
8436;DHT22;4255;48.730;9.156;2023-12-20T04:05:05;6.40;99.90
8436;DHT22;4255;48.730;9.156;2023-12-20T04:07:31;6.20;99.90
8436;DHT22;4255;48.730;9.156;2023-12-20T04:09:57;6.30;99.90
8436;DHT22;4255;48.730;9.156;2023-12-20T04:12:22;6.20;99.90
8436;DHT22;4255;48.730;9.156;2023-12-20T04:14:48;6.20;99.90
8436;DHT22;4255;48.730;9.156;2023-12-20T04:17:15;6.20;99.90
8436;DHT22;4255;48.730;9.156;2023-12-20T04:19:44;6.30;99.90
8436;DHT22;4255;48.730;9.156;2023-12-20T04:22:10;6.20;99.90
8436;DHT22;4255;48.730;9.156;2023-12-20T04:24:35;6.30;99.90
8436;DHT22;4255;48.730;9.156;2023-12-20T04:27:01;6.50;99.90
8436;DHT22;4255;48.730;9.156;2023-12-20T04:29:27;6.40;99.90
8436;DHT22;4255;48.730;9.156;2023-12-20T04:31:53;6.50;99.90
8436;DHT22;4255;48.730;9.156;2023-12-20T04:34:18;6.40;99.90
8436;DHT22;4255;48.730;9.156;2023-12-20T04:36:44;6.30;99.90
8436;DHT22;4255;48.730;9.156;2023-12-20T04:39:12;6.30;99.90
8436;DHT22;4255;48.730;9.156;2023-12-20T04:41:38;6.30;99.90
8436;DHT22;4255;48.730;9.156;2023-12-20T04:44:05;6.30;99.90
8436;DHT22;4255;48.730;9.156;2023-12-20T04:46:31;6.30;99.90
8436;DHT22;4255;48.730;9.156;2023-12-20T04:48:57;6.30;99.90
8436;DHT22;4255;48.730;9.156;2023-12-20T04:51:22;6.30;99.90
8436;DHT22;4255;48.730;9.156;2023-12-20T04:53:48;6.30;99.90
8436;DHT22;4255;48.730;9.156;2023-12-20T04:56:14;6.40;99.90
8436;DHT22;4255;48.730;9.156;2023-12-20T04:58:39;6.30;99.90
8436;DHT22;4255;48.730;9.156;2023-12-20T05:01:06;6.40;99.90
8436;DHT22;4255;48.730;9.156;2023-12-20T05:03:32;6.40;99.90
8436;DHT22;4255;48.730;9.156;2023-12-20T05:05:58;6.20;99.90
8436;DHT22;4255;48.730;9.156;2023-12-20T05:08:23;6.20;99.90
8436;DHT22;4255;48.730;9.156;2023-12-20T05:10:51;6.30;99.90
8436;DHT22;4255;48.730;9.156;2023-12-20T05:13:17;6.20;99.90
8436;DHT22;4255;48.730;9.156;2023-12-20T05:15:42;6.20;99.90
8436;DHT22;4255;48.730;9.156;2023-12-20T05:18:08;6.30;99.90
8436;DHT22;4255;48.730;9.156;2023-12-20T05:20:34;6.30;99.90
8436;DHT22;4255;48.730;9.156;2023-12-20T05:22:59;6.20;99.90
8436;DHT22;4255;48.730;9.156;2023-12-20T05:25:25;6.10;99.90
8436;DHT22;4255;48.730;9.156;2023-12-20T05:27:51;6.10;99.90
8436;DHT22;4255;48.730;9.156;2023-12-20T05:30:16;6.10;99.90
8436;DHT22;4255;48.730;9.156;2023-12-20T05:32:42;6.10;99.90
8436;DHT22;4255;48.730;9.156;2023-12-20T05:35:08;6.20;99.90
8436;DHT22;4255;48.730;9.156;2023-12-20T05:37:33;6.10;99.90
8436;DHT22;4255;48.730;9.156;2023-12-20T05:39:59;6.20;99.90
8436;DHT22;4255;48.730;9.156;2023-12-20T05:42:24;6.20;99.90
8436;DHT22;4255;48.730;9.156;2023-12-20T05:44:50;6.30;99.90
8436;DHT22;4255;48.730;9.156;2023-12-20T05:47:15;6.20;99.90
8436;DHT22;4255;48.730;9.156;2023-12-20T05:49:41;6.20;99.90
8436;DHT22;4255;48.730;9.156;2023-12-20T05:52:07;6.30;99.90
8436;DHT22;4255;48.730;9.156;2023-12-20T05:54:32;6.10;99.90
8436;DHT22;4255;48.730;9.156;2023-12-20T05:56:58;6.00;99.90
8436;DHT22;4255;48.730;9.156;2023-12-20T05:59:24;6.10;99.90
8436;DHT22;4255;48.730;9.156;2023-12-20T06:01:49;6.20;99.90
8436;DHT22;4255;48.730;9.156;2023-12-20T06:04:15;6.20;99.90
8436;DHT22;4255;48.730;9.156;2023-12-20T06:06:41;6.00;99.90
8436;DHT22;4255;48.730;9.156;2023-12-20T06:09:08;6.20;99.90
8436;DHT22;4255;48.730;9.156;2023-12-20T06:11:34;6.30;99.90
8436;DHT22;4255;48.730;9.156;2023-12-20T06:13:59;6.30;99.90
8436;DHT22;4255;48.730;9.156;2023-12-20T06:16:25;6.30;99.90
8436;DHT22;4255;48.730;9.156;2023-12-20T06:18:51;6.30;99.90
8436;DHT22;4255;48.730;9.156;2023-12-20T06:21:16;6.20;99.90
8436;DHT22;4255;48.730;9.156;2023-12-20T06:23:42;6.20;99.90
8436;DHT22;4255;48.730;9.156;2023-12-20T06:26:08;6.40;99.90
8436;DHT22;4255;48.730;9.156;2023-12-20T06:28:34;6.40;99.90
8436;DHT22;4255;48.730;9.156;2023-12-20T06:31:00;6.40;99.90
8436;DHT22;4255;48.730;9.156;2023-12-20T06:33:26;6.30;99.90
8436;DHT22;4255;48.730;9.156;2023-12-20T06:35:52;6.40;99.90
8436;DHT22;4255;48.730;9.156;2023-12-20T06:38:18;6.40;99.90
8436;DHT22;4255;48.730;9.156;2023-12-20T06:40:44;6.40;99.90
8436;DHT22;4255;48.730;9.156;2023-12-20T06:43:10;6.40;99.90
8436;DHT22;4255;48.730;9.156;2023-12-20T06:45:36;6.30;99.90
8436;DHT22;4255;48.730;9.156;2023-12-20T06:48:01;6.40;99.90
8436;DHT22;4255;48.730;9.156;2023-12-20T06:50:27;6.50;99.90
8436;DHT22;4255;48.730;9.156;2023-12-20T06:52:53;6.50;99.90
8436;DHT22;4255;48.730;9.156;2023-12-20T06:55:18;6.60;99.90
8436;DHT22;4255;48.730;9.156;2023-12-20T06:57:45;6.70;99.90
8436;DHT22;4255;48.730;9.156;2023-12-20T07:00:14;6.70;99.90
8436;DHT22;4255;48.730;9.156;2023-12-20T07:02:40;6.90;99.90
8436;DHT22;4255;48.730;9.156;2023-12-20T07:05:07;6.70;99.90
8436;DHT22;4255;48.730;9.156;2023-12-20T07:07:32;6.90;99.90
8436;DHT22;4255;48.730;9.156;2023-12-20T07:09:58;6.90;99.90
8436;DHT22;4255;48.730;9.156;2023-12-20T07:12:24;6.90;99.90
8436;DHT22;4255;48.730;9.156;2023-12-20T07:14:49;7.00;99.90
8436;DHT22;4255;48.730;9.156;2023-12-20T07:17:15;7.20;99.90
8436;DHT22;4255;48.730;9.156;2023-12-20T07:19:41;7.40;99.90
8436;DHT22;4255;48.730;9.156;2023-12-20T07:22:07;7.30;99.90
8436;DHT22;4255;48.730;9.156;2023-12-20T07:24:34;7.30;99.90
8436;DHT22;4255;48.730;9.156;2023-12-20T07:27:00;7.10;99.90
8436;DHT22;4255;48.730;9.156;2023-12-20T07:29:26;7.20;99.90
8436;DHT22;4255;48.730;9.156;2023-12-20T07:31:53;6.80;99.90
8436;DHT22;4255;48.730;9.156;2023-12-20T07:34:22;6.60;99.90
8436;DHT22;4255;48.730;9.156;2023-12-20T07:36:47;6.50;99.90
8436;DHT22;4255;48.730;9.156;2023-12-20T07:39:14;6.40;99.90
8436;DHT22;4255;48.730;9.156;2023-12-20T07:41:40;6.30;99.90
8436;DHT22;4255;48.730;9.156;2023-12-20T07:44:06;6.00;99.90
8436;DHT22;4255;48.730;9.156;2023-12-20T07:46:32;5.80;99.90
8436;DHT22;4255;48.730;9.156;2023-12-20T07:48:58;5.80;99.90
8436;DHT22;4255;48.730;9.156;2023-12-20T07:51:23;5.70;99.90
8436;DHT22;4255;48.730;9.156;2023-12-20T07:53:49;5.70;99.90
8436;DHT22;4255;48.730;9.156;2023-12-20T07:58:40;5.80;99.90
8436;DHT22;4255;48.730;9.156;2023-12-20T08:01:06;5.70;99.90
8436;DHT22;4255;48.730;9.156;2023-12-20T08:03:32;5.70;99.90
8436;DHT22;4255;48.730;9.156;2023-12-20T08:05:57;5.50;99.90
8436;DHT22;4255;48.730;9.156;2023-12-20T08:08:25;5.40;99.90
8436;DHT22;4255;48.730;9.156;2023-12-20T08:10:50;5.50;99.90
8436;DHT22;4255;48.730;9.156;2023-12-20T08:13:16;5.60;99.90
8436;DHT22;4255;48.730;9.156;2023-12-20T08:15:41;5.60;99.90
8436;DHT22;4255;48.730;9.156;2023-12-20T08:18:07;5.70;99.90
8436;DHT22;4255;48.730;9.156;2023-12-20T08:20:33;5.70;99.90
8436;DHT22;4255;48.730;9.156;2023-12-20T08:22:58;5.80;99.90
8436;DHT22;4255;48.730;9.156;2023-12-20T08:25:24;5.60;99.90
8436;DHT22;4255;48.730;9.156;2023-12-20T08:27:49;5.70;99.90
8436;DHT22;4255;48.730;9.156;2023-12-20T08:30:15;5.70;99.90
8436;DHT22;4255;48.730;9.156;2023-12-20T08:32:43;5.80;99.90
8436;DHT22;4255;48.730;9.156;2023-12-20T08:35:08;5.80;99.90
8436;DHT22;4255;48.730;9.156;2023-12-20T08:37:34;5.70;99.90
8436;DHT22;4255;48.730;9.156;2023-12-20T08:40:01;5.80;99.90
8436;DHT22;4255;48.730;9.156;2023-12-20T08:42:26;5.90;99.90
8436;DHT22;4255;48.730;9.156;2023-12-20T08:44:57;5.90;99.90
8436;DHT22;4255;48.730;9.156;2023-12-20T08:47:23;5.80;99.90
8436;DHT22;4255;48.730;9.156;2023-12-20T08:49:48;5.60;99.90
8436;DHT22;4255;48.730;9.156;2023-12-20T08:52:14;5.60;99.90
8436;DHT22;4255;48.730;9.156;2023-12-20T08:54:39;5.70;99.90
8436;DHT22;4255;48.730;9.156;2023-12-20T08:57:05;5.70;99.90
8436;DHT22;4255;48.730;9.156;2023-12-20T08:59:32;5.70;99.90
8436;DHT22;4255;48.730;9.156;2023-12-20T09:01:58;5.50;99.90
8436;DHT22;4255;48.730;9.156;2023-12-20T09:04:23;5.40;99.90
8436;DHT22;4255;48.730;9.156;2023-12-20T09:06:49;5.30;99.90
8436;DHT22;4255;48.730;9.156;2023-12-20T09:09:15;5.20;99.90
8436;DHT22;4255;48.730;9.156;2023-12-20T09:11:40;5.30;99.90
8436;DHT22;4255;48.730;9.156;2023-12-20T09:14:06;5.20;99.90
8436;DHT22;4255;48.730;9.156;2023-12-20T09:16:32;5.20;99.90
8436;DHT22;4255;48.730;9.156;2023-12-20T09:18:57;5.30;99.90
8436;DHT22;4255;48.730;9.156;2023-12-20T09:21:23;5.40;99.90
8436;DHT22;4255;48.730;9.156;2023-12-20T09:23:49;5.50;99.90
8436;DHT22;4255;48.730;9.156;2023-12-20T09:26:14;5.60;99.90
8436;DHT22;4255;48.730;9.156;2023-12-20T09:28:40;5.60;99.90
8436;DHT22;4255;48.730;9.156;2023-12-20T09:31:06;5.50;99.90
8436;DHT22;4255;48.730;9.156;2023-12-20T09:33:32;5.70;99.90
8436;DHT22;4255;48.730;9.156;2023-12-20T09:35:58;5.70;99.90
8436;DHT22;4255;48.730;9.156;2023-12-20T09:38:23;5.80;99.90
8436;DHT22;4255;48.730;9.156;2023-12-20T09:40:49;5.90;99.90
8436;DHT22;4255;48.730;9.156;2023-12-20T09:43:19;5.90;99.90
8436;DHT22;4255;48.730;9.156;2023-12-20T09:45:46;5.80;99.90
8436;DHT22;4255;48.730;9.156;2023-12-20T09:48:12;5.90;99.90
8436;DHT22;4255;48.730;9.156;2023-12-20T09:50:40;6.00;99.90
8436;DHT22;4255;48.730;9.156;2023-12-20T09:53:11;6.00;99.90
8436;DHT22;4255;48.730;9.156;2023-12-20T09:55:41;6.00;99.90
8436;DHT22;4255;48.730;9.156;2023-12-20T09:58:06;6.20;99.90
8436;DHT22;4255;48.730;9.156;2023-12-20T10:00:34;6.30;99.90
8436;DHT22;4255;48.730;9.156;2023-12-20T10:03:00;6.30;99.90
8436;DHT22;4255;48.730;9.156;2023-12-20T10:05:28;6.00;99.90
8436;DHT22;4255;48.730;9.156;2023-12-20T10:07:54;6.00;99.90
8436;DHT22;4255;48.730;9.156;2023-12-20T10:10:20;6.20;99.90
8436;DHT22;4255;48.730;9.156;2023-12-20T10:13:05;6.30;99.90
8436;DHT22;4255;48.730;9.156;2023-12-20T10:15:35;6.50;76.20
8436;DHT22;4255;48.730;9.156;2023-12-20T10:18:01;6.50;61.50
8436;DHT22;4255;48.730;9.156;2023-12-20T10:20:28;6.70;64.00
8436;DHT22;4255;48.730;9.156;2023-12-20T10:22:55;6.80;50.40
8436;DHT22;4255;48.730;9.156;2023-12-20T10:25:21;6.90;60.90
8436;DHT22;4255;48.730;9.156;2023-12-20T10:27:47;6.80;59.90
8436;DHT22;4255;48.730;9.156;2023-12-20T10:30:14;6.50;91.80
8436;DHT22;4255;48.730;9.156;2023-12-20T10:32:40;6.40;78.90
8436;DHT22;4255;48.730;9.156;2023-12-20T10:35:06;6.40;51.10
8436;DHT22;4255;48.730;9.156;2023-12-20T10:37:36;6.20;91.00
8436;DHT22;4255;48.730;9.156;2023-12-20T10:40:04;6.00;60.20
8436;DHT22;4255;48.730;9.156;2023-12-20T10:42:31;6.10;99.90
8436;DHT22;4255;48.730;9.156;2023-12-20T10:44:59;6.30;97.10
8436;DHT22;4255;48.730;9.156;2023-12-20T10:47:28;6.30;66.10
8436;DHT22;4255;48.730;9.156;2023-12-20T10:49:54;6.20;99.70
8436;DHT22;4255;48.730;9.156;2023-12-20T10:52:23;6.20;99.90
8436;DHT22;4255;48.730;9.156;2023-12-20T10:54:50;6.20;99.90
8436;DHT22;4255;48.730;9.156;2023-12-20T10:57:18;6.40;99.90
8436;DHT22;4255;48.730;9.156;2023-12-20T10:59:45;6.20;34.50
8436;DHT22;4255;48.730;9.156;2023-12-20T11:02:12;6.20;66.60
8436;DHT22;4255;48.730;9.156;2023-12-20T11:04:44;6.30;86.30
8436;DHT22;4255;48.730;9.156;2023-12-20T11:07:21;6.40;93.70
8436;DHT22;4255;48.730;9.156;2023-12-20T11:10:29;6.60;99.70
8436;DHT22;4255;48.730;9.156;2023-12-20T11:13:07;6.30;56.40
8436;DHT22;4255;48.730;9.156;2023-12-20T11:15:36;6.20;99.90
8436;DHT22;4255;48.730;9.156;2023-12-20T11:18:03;6.50;99.90
8436;DHT22;4255;48.730;9.156;2023-12-20T11:20:37;6.50;96.30
8436;DHT22;4255;48.730;9.156;2023-12-20T11:23:03;6.60;81.60
8436;DHT22;4255;48.730;9.156;2023-12-20T11:25:29;6.50;53.90
8436;DHT22;4255;48.730;9.156;2023-12-20T11:28:11;6.50;57.50
8436;DHT22;4255;48.730;9.156;2023-12-20T11:30:57;6.30;51.80
8436;DHT22;4255;48.730;9.156;2023-12-20T11:33:45;6.10;40.20
8436;DHT22;4255;48.730;9.156;2023-12-20T11:36:14;5.90;20.90
8436;DHT22;4255;48.730;9.156;2023-12-20T11:38:57;5.80;41.10
8436;DHT22;4255;48.730;9.156;2023-12-20T11:41:26;5.80;21.80
8436;DHT22;4255;48.730;9.156;2023-12-20T11:43:55;5.80;23.00
8436;DHT22;4255;48.730;9.156;2023-12-20T11:46:22;5.80;36.80
8436;DHT22;4255;48.730;9.156;2023-12-20T11:48:48;5.90;24.40
8436;DHT22;4255;48.730;9.156;2023-12-20T11:51:14;5.90;19.90
8436;DHT22;4255;48.730;9.156;2023-12-20T11:53:40;6.00;5.70
8436;DHT22;4255;48.730;9.156;2023-12-20T11:56:08;6.00;1.00
8436;DHT22;4255;48.730;9.156;2023-12-20T11:58:34;5.90;1.00
8436;DHT22;4255;48.730;9.156;2023-12-20T12:01:00;5.90;1.00
8436;DHT22;4255;48.730;9.156;2023-12-20T12:03:28;5.90;1.00
8436;DHT22;4255;48.730;9.156;2023-12-20T12:05:53;5.80;1.30
8436;DHT22;4255;48.730;9.156;2023-12-20T12:08:19;5.80;1.00
8436;DHT22;4255;48.730;9.156;2023-12-20T12:10:45;5.80;1.00
8436;DHT22;4255;48.730;9.156;2023-12-20T12:13:11;5.90;25.40
8436;DHT22;4255;48.730;9.156;2023-12-20T12:15:37;5.90;7.90
8436;DHT22;4255;48.730;9.156;2023-12-20T12:18:03;6.00;3.40
8436;DHT22;4255;48.730;9.156;2023-12-20T12:20:28;6.30;1.00
8436;DHT22;4255;48.730;9.156;2023-12-20T12:23:01;6.20;1.00
8436;DHT22;4255;48.730;9.156;2023-12-20T12:25:29;6.20;1.00
8436;DHT22;4255;48.730;9.156;2023-12-20T12:27:56;6.30;1.00
8436;DHT22;4255;48.730;9.156;2023-12-20T12:30:21;6.30;1.00
8436;DHT22;4255;48.730;9.156;2023-12-20T12:32:51;6.40;1.00
8436;DHT22;4255;48.730;9.156;2023-12-20T12:35:17;6.40;1.00
8436;DHT22;4255;48.730;9.156;2023-12-20T12:37:43;6.60;1.00
8436;DHT22;4255;48.730;9.156;2023-12-20T12:40:14;6.50;1.00
8436;DHT22;4255;48.730;9.156;2023-12-20T12:42:41;6.50;1.00
8436;DHT22;4255;48.730;9.156;2023-12-20T12:45:08;6.70;1.00
8436;DHT22;4255;48.730;9.156;2023-12-20T12:47:34;6.70;1.00
8436;DHT22;4255;48.730;9.156;2023-12-20T12:50:00;6.80;1.00
8436;DHT22;4255;48.730;9.156;2023-12-20T12:52:25;6.70;1.00
8436;DHT22;4255;48.730;9.156;2023-12-20T12:54:52;6.80;1.00
8436;DHT22;4255;48.730;9.156;2023-12-20T12:57:18;6.80;1.00
8436;DHT22;4255;48.730;9.156;2023-12-20T12:59:45;6.80;1.00
8436;DHT22;4255;48.730;9.156;2023-12-20T13:02:13;6.80;1.00
8436;DHT22;4255;48.730;9.156;2023-12-20T13:04:42;6.70;1.00
8436;DHT22;4255;48.730;9.156;2023-12-20T13:07:09;7.00;1.00
8436;DHT22;4255;48.730;9.156;2023-12-20T13:09:37;7.10;1.00
8436;DHT22;4255;48.730;9.156;2023-12-20T13:12:02;7.00;1.00
8436;DHT22;4255;48.730;9.156;2023-12-20T13:14:35;6.90;1.00
8436;DHT22;4255;48.730;9.156;2023-12-20T13:17:03;6.80;1.00
8436;DHT22;4255;48.730;9.156;2023-12-20T13:19:29;6.70;1.00
8436;DHT22;4255;48.730;9.156;2023-12-20T13:21:55;6.60;1.00
8436;DHT22;4255;48.730;9.156;2023-12-20T13:24:21;6.70;1.00
8436;DHT22;4255;48.730;9.156;2023-12-20T13:26:49;6.50;1.00
8436;DHT22;4255;48.730;9.156;2023-12-20T13:29:15;6.40;1.00
8436;DHT22;4255;48.730;9.156;2023-12-20T13:31:41;6.40;1.00
8436;DHT22;4255;48.730;9.156;2023-12-20T13:34:10;6.50;1.00
8436;DHT22;4255;48.730;9.156;2023-12-20T13:36:36;6.50;1.00
8436;DHT22;4255;48.730;9.156;2023-12-20T13:39:03;6.50;1.00
8436;DHT22;4255;48.730;9.156;2023-12-20T13:41:30;6.50;1.00
8436;DHT22;4255;48.730;9.156;2023-12-20T13:43:56;6.70;1.00
8436;DHT22;4255;48.730;9.156;2023-12-20T13:46:22;6.60;1.00
8436;DHT22;4255;48.730;9.156;2023-12-20T13:48:48;6.50;1.00
8436;DHT22;4255;48.730;9.156;2023-12-20T13:51:15;6.30;1.00
8436;DHT22;4255;48.730;9.156;2023-12-20T13:53:40;6.30;1.00
8436;DHT22;4255;48.730;9.156;2023-12-20T13:56:06;6.20;1.00
8436;DHT22;4255;48.730;9.156;2023-12-20T13:58:32;6.20;1.00
8436;DHT22;4255;48.730;9.156;2023-12-20T14:00:58;6.30;1.00
8436;DHT22;4255;48.730;9.156;2023-12-20T14:03:23;6.20;1.00
8436;DHT22;4255;48.730;9.156;2023-12-20T14:05:49;6.30;1.00
8436;DHT22;4255;48.730;9.156;2023-12-20T14:08:14;6.30;1.00
8436;DHT22;4255;48.730;9.156;2023-12-20T14:14:01;6.30;1.00
8436;DHT22;4255;48.730;9.156;2023-12-20T14:16:27;6.30;9.80
8436;DHT22;4255;48.730;9.156;2023-12-20T14:18:52;6.30;19.30
8436;DHT22;4255;48.730;9.156;2023-12-20T14:21:22;6.30;17.30
8436;DHT22;4255;48.730;9.156;2023-12-20T14:23:49;6.00;30.10
8436;DHT22;4255;48.730;9.156;2023-12-20T14:26:14;6.00;34.10
8436;DHT22;4255;48.730;9.156;2023-12-20T14:28:41;6.00;58.80
8436;DHT22;4255;48.730;9.156;2023-12-20T14:31:07;5.90;79.90
8436;DHT22;4255;48.730;9.156;2023-12-20T14:33:34;5.90;96.60
8436;DHT22;4255;48.730;9.156;2023-12-20T14:36:00;5.90;99.90
8436;DHT22;4255;48.730;9.156;2023-12-20T14:38:25;6.00;99.90
8436;DHT22;4255;48.730;9.156;2023-12-20T14:40:51;5.80;99.90
8436;DHT22;4255;48.730;9.156;2023-12-20T14:43:16;5.90;99.90
8436;DHT22;4255;48.730;9.156;2023-12-20T14:45:42;6.00;99.90
8436;DHT22;4255;48.730;9.156;2023-12-20T14:48:08;6.00;99.90
8436;DHT22;4255;48.730;9.156;2023-12-20T14:50:33;5.80;99.90
8436;DHT22;4255;48.730;9.156;2023-12-20T14:52:59;5.60;99.90
8436;DHT22;4255;48.730;9.156;2023-12-20T14:55:27;5.70;99.90
8436;DHT22;4255;48.730;9.156;2023-12-20T14:57:54;5.80;99.90
8436;DHT22;4255;48.730;9.156;2023-12-20T15:00:20;6.00;99.90
8436;DHT22;4255;48.730;9.156;2023-12-20T15:02:46;6.00;99.90
8436;DHT22;4255;48.730;9.156;2023-12-20T15:05:11;6.00;99.90
8436;DHT22;4255;48.730;9.156;2023-12-20T15:07:37;5.90;99.90
8436;DHT22;4255;48.730;9.156;2023-12-20T15:10:03;5.70;99.90
8436;DHT22;4255;48.730;9.156;2023-12-20T15:12:29;5.60;99.90
8436;DHT22;4255;48.730;9.156;2023-12-20T15:14:54;5.60;99.90
8436;DHT22;4255;48.730;9.156;2023-12-20T15:17:20;5.50;99.90
8436;DHT22;4255;48.730;9.156;2023-12-20T15:19:45;5.50;99.90
8436;DHT22;4255;48.730;9.156;2023-12-20T15:22:11;5.50;99.90
8436;DHT22;4255;48.730;9.156;2023-12-20T15:24:38;5.50;99.90
8436;DHT22;4255;48.730;9.156;2023-12-20T15:27:06;5.40;99.90
8436;DHT22;4255;48.730;9.156;2023-12-20T15:29:31;5.30;99.90
8436;DHT22;4255;48.730;9.156;2023-12-20T15:31:57;5.30;99.90
8436;DHT22;4255;48.730;9.156;2023-12-20T15:34:23;5.40;99.90
8436;DHT22;4255;48.730;9.156;2023-12-20T15:36:48;5.40;99.90
8436;DHT22;4255;48.730;9.156;2023-12-20T15:39:14;5.50;99.90
8436;DHT22;4255;48.730;9.156;2023-12-20T15:41:40;5.40;99.90
8436;DHT22;4255;48.730;9.156;2023-12-20T15:44:06;5.50;99.90
8436;DHT22;4255;48.730;9.156;2023-12-20T15:46:31;5.40;99.90
8436;DHT22;4255;48.730;9.156;2023-12-20T15:48:57;5.40;99.90
8436;DHT22;4255;48.730;9.156;2023-12-20T15:51:23;5.60;99.90
8436;DHT22;4255;48.730;9.156;2023-12-20T15:53:49;5.50;99.90
8436;DHT22;4255;48.730;9.156;2023-12-20T15:56:16;5.50;99.90
8436;DHT22;4255;48.730;9.156;2023-12-20T15:58:42;5.50;99.90
8436;DHT22;4255;48.730;9.156;2023-12-20T16:01:07;5.50;99.90
8436;DHT22;4255;48.730;9.156;2023-12-20T16:03:34;5.50;99.90
8436;DHT22;4255;48.730;9.156;2023-12-20T16:05:59;5.60;99.90
8436;DHT22;4255;48.730;9.156;2023-12-20T16:08:25;5.70;99.90
8436;DHT22;4255;48.730;9.156;2023-12-20T16:10:51;5.70;99.90
8436;DHT22;4255;48.730;9.156;2023-12-20T16:13:16;5.60;99.90
8436;DHT22;4255;48.730;9.156;2023-12-20T16:15:42;5.60;99.90
8436;DHT22;4255;48.730;9.156;2023-12-20T16:18:09;5.60;99.90
8436;DHT22;4255;48.730;9.156;2023-12-20T16:20:37;5.70;99.90